Time;durP1;ratioP1;P1;durP2;ratioP2;P2;SDS_P1;SDS_P2;PMS_P1;PMS_P2;Temp;Humidity;BMP_temperature;BMP_pressure;BME280_temperature;BME280_humidity;BME280_pressure;Samples;Min_cycle;Max_cycle;Signal;HPM_P1;HPM_P2
2023/01/30 00:01:44;;;;;;;4.53;4.23;;;;;;;-0.17;82.77;95984.28;4357841;32;20248;-61
2023/01/30 00:04:11;;;;;;;2.42;1.87;;;;;;;-0.40;83.49;95984.00;4367198;32;20194;-62
2023/01/30 00:06:37;;;;;;;3.92;3.72;;;;;;;-0.28;83.58;95979.75;4364307;32;20189;-64
2023/01/30 00:09:03;;;;;;;5.55;3.20;;;;;;;-0.10;83.14;95974.63;4355359;32;20188;-61
2023/01/30 00:11:30;;;;;;;3.73;2.40;;;;;;;-0.31;82.72;95969.75;4356387;32;20341;-62
2023/01/30 00:13:56;;;;;;;2.85;2.67;;;;;;;-0.17;82.58;95963.44;4365292;32;20184;-61
2023/01/30 00:16:22;;;;;;;5.87;3.80;;;;;;;-0.05;82.41;95950.53;4365183;32;20310;-62
2023/01/30 00:18:47;;;;;;;2.87;2.77;;;;;;;-0.03;81.63;95958.97;4359928;32;20181;-62
2023/01/30 00:21:14;;;;;;;2.87;2.77;;;;;;;-0.12;82.28;95952.38;4355945;32;20219;-60
2023/01/30 00:23:40;;;;;;;2.35;2.25;;;;;;;-0.07;82.16;95952.56;4370272;32;20204;-61
2023/01/30 00:26:06;;;;;;;2.33;2.23;;;;;;;-0.11;82.51;95952.19;4367645;32;20169;-62
2023/01/30 00:28:31;;;;;;;3.50;3.30;;;;;;;-0.08;81.83;95951.75;4369050;32;20241;-61
2023/01/30 00:30:57;;;;;;;3.50;2.97;;;;;;;-0.13;82.15;95946.37;4365188;32;20256;-60
2023/01/30 00:33:24;;;;;;;3.00;2.80;;;;;;;-0.19;82.51;95947.22;4355167;32;20192;-61
2023/01/30 00:35:51;;;;;;;3.62;3.33;;;;;;;-0.07;81.88;95942.12;4363530;32;20189;-60
2023/01/30 00:38:17;;;;;;;4.20;4.00;;;;;;;-0.09;81.91;95936.31;4354841;32;20186;-60
2023/01/30 00:40:43;;;;;;;2.65;2.55;;;;;;;0.16;80.92;95938.97;4349008;32;20181;-60
2023/01/30 00:48:43;;;;;;;4.00;3.78;;;;;;;-0.01;81.19;95923.03;4369480;32;20199;-62
2023/01/30 00:51:09;;;;;;;3.37;3.17;;;;;;;-0.09;81.56;95923.28;4373101;32;20180;-61
2023/01/30 00:53:34;;;;;;;4.07;3.80;;;;;;;-0.04;81.02;95921.66;4371143;32;20255;-61
2023/01/30 00:56:00;;;;;;;4.80;4.40;;;;;;;-0.17;81.58;95916.50;4365029;32;20200;-61
2023/01/30 00:58:26;;;;;;;3.60;3.23;;;;;;;-0.20;82.28;95910.91;4356933;32;20176;-61
2023/01/30 01:00:52;;;;;;;4.37;4.07;;;;;;;-0.21;81.86;95907.53;4364446;32;20300;-61
2023/01/30 01:03:18;;;;;;;2.17;2.13;;;;;;;-0.32;82.20;95903.00;4367101;32;20215;-60
2023/01/30 01:05:44;;;;;;;3.80;3.50;;;;;;;-0.24;82.64;95902.75;4354543;32;20186;-61
2023/01/30 01:08:10;;;;;;;3.50;3.25;;;;;;;-0.38;82.50;95898.63;4362769;32;20184;-61
2023/01/30 01:10:36;;;;;;;3.43;3.33;;;;;;;-0.18;82.36;95890.66;4363635;32;20199;-61
2023/01/30 01:13:02;;;;;;;4.57;3.70;;;;;;;-0.03;81.70;95894.56;4368085;32;20181;-61
2023/01/30 01:15:29;;;;;;;4.45;3.33;;;;;;;-0.29;82.16;95884.34;4368054;32;20184;-61
2023/01/30 01:17:55;;;;;;;5.32;4.30;;;;;;;-0.04;81.23;95872.13;4368316;32;20173;-61
2023/01/30 01:20:21;;;;;;;3.20;3.00;;;;;;;0.05;80.93;95871.84;4370198;32;20202;-61
2023/01/30 01:22:51;;;;;;;2.67;2.58;;;;;;;0.06;80.40;95876.03;4353966;32;20181;-61
2023/01/30 01:25:18;;;;;;;3.12;2.90;;;;;;;-0.10;80.65;95880.78;4355293;32;20207;-61
2023/01/30 01:27:43;;;;;;;4.62;4.32;;;;;;;-0.16;81.24;95876.41;4366058;32;20181;-61
2023/01/30 01:30:09;;;;;;;3.13;3.03;;;;;;;0.10;80.93;95877.22;4363274;32;20180;-61
2023/01/30 01:32:35;;;;;;;3.60;3.37;;;;;;;-0.05;80.79;95877.53;4367424;32;20223;-61
2023/01/30 01:35:00;;;;;;;3.33;3.07;;;;;;;-0.22;80.95;95879.09;4359919;32;20241;-60
2023/01/30 01:37:25;;;;;;;3.33;3.00;;;;;;;-0.28;81.35;95878.13;4367917;32;20213;-60
2023/01/30 01:42:36;;;;;;;3.42;3.12;;;;;;;-0.33;82.06;95880.53;4366293;32;20195;-60
2023/01/30 01:45:11;;;;;;;3.35;3.15;;;;;;;-0.67;83.24;95878.37;4367706;32;20221;-60
2023/01/30 01:47:54;;;;;;;3.95;3.65;;;;;;;-0.68;83.04;95879.38;4383877;32;20180;-60
2023/01/30 01:50:24;;;;;;;4.50;2.70;;;;;;;-0.61;83.57;95873.09;4352603;32;20252;-60
2023/01/30 01:52:52;;;;;;;3.20;3.00;;;;;;;-0.54;82.94;95865.25;4347718;32;20201;-61
2023/01/30 01:55:21;;;;;;;4.03;2.87;;;;;;;-0.46;82.70;95855.37;4368589;32;20185;-60
2023/01/30 01:57:56;;;;;;;3.70;3.45;;;;;;;-0.39;82.70;95850.09;4357761;32;20194;-60
2023/01/30 02:00:22;;;;;;;3.80;3.67;;;;;;;-0.47;82.94;95850.38;4365282;32;20227;-60
2023/01/30 02:02:58;;;;;;;2.67;2.53;;;;;;;-0.57;82.62;95847.44;4363162;32;20195;-61
2023/01/30 02:05:29;;;;;;;5.53;3.47;;;;;;;-0.24;81.85;95853.22;4371166;32;20207;-60
2023/01/30 02:07:58;;;;;;;2.97;2.87;;;;;;;-0.49;82.41;95860.22;4362628;32;20269;-60
2023/01/30 02:10:31;;;;;;;4.43;4.12;;;;;;;-0.53;82.49;95859.84;4355490;32;20207;-61
2023/01/30 02:12:56;;;;;;;2.25;2.08;;;;;;;-0.57;82.73;95858.66;4371321;32;20229;-61
2023/01/30 02:15:22;;;;;;;3.53;3.23;;;;;;;-0.48;82.36;95856.59;4362776;32;20220;-60
2023/01/30 02:17:47;;;;;;;3.00;2.83;;;;;;;-0.40;82.16;95864.16;4369283;32;20192;-61
2023/01/30 02:20:29;;;;;;;2.77;2.57;;;;;;;-0.47;82.02;95873.84;4358923;32;20204;-60
2023/01/30 02:23:28;;;;;;;3.35;3.15;;;;;;;-0.46;81.99;95878.84;4357686;32;20263;-61
2023/01/30 02:26:21;;;;;;;4.18;3.97;;;;;;;-0.28;81.14;95870.28;4364934;32;20188;-61
2023/01/30 02:29:15;;;;;;;3.42;3.28;;;;;;;-0.53;81.83;95866.84;4365358;32;20205;-61
2023/01/30 02:31:56;;;;;;;1.62;1.62;;;;;;;-0.35;81.94;95872.94;4337890;32;20192;-61
2023/01/30 02:34:40;;;;;;;5.12;3.12;;;;;;;-0.18;81.12;95872.41;4360157;32;20180;-61
2023/01/30 02:37:30;;;;;;;2.90;2.62;;;;;;;-0.17;80.80;95866.19;4360099;32;20229;-60
2023/01/30 02:40:13;;;;;;;3.78;3.47;;;;;;;-0.26;80.92;95857.84;4359345;32;20195;-60
2023/01/30 02:42:48;;;;;;;3.03;2.92;;;;;;;-0.44;81.25;95855.19;4374677;32;20198;-60
2023/01/30 02:45:29;;;;;;;3.22;3.12;;;;;;;-0.37;81.72;95869.75;4361576;32;20210;-60
2023/01/30 02:48:05;;;;;;;3.95;3.08;;;;;;;-0.27;80.95;95868.47;4356431;32;20192;-60
2023/01/30 02:50:44;;;;;;;2.33;2.33;;;;;;;-0.46;81.63;95878.84;4362579;32;20212;-60
2023/01/30 02:53:10;;;;;;;3.00;2.80;;;;;;;-0.41;81.39;95883.41;4351544;32;20206;-61
2023/01/30 02:55:38;;;;;;;2.95;2.72;;;;;;;-0.58;82.39;95877.09;4373349;32;20185;-60
2023/01/30 02:58:04;;;;;;;2.60;2.50;;;;;;;-0.51;81.94;95877.87;4355822;32;20181;-61
2023/01/30 03:01:02;;;;;;;2.60;2.40;;;;;;;-0.35;80.97;95872.94;4372877;32;20280;-61
2023/01/30 03:04:00;;;;;;;2.72;2.62;;;;;;;-0.44;81.22;95876.81;4359855;32;20201;-61
2023/01/30 03:06:47;;;;;;;3.10;2.47;;;;;;;-0.64;81.89;95890.97;4371574;32;20207;-61
2023/01/30 03:09:21;;;;;;;3.40;3.15;;;;;;;-0.56;81.22;95895.91;4354901;32;20244;-60
2023/01/30 03:12:08;;;;;;;2.22;1.83;;;;;;;-0.92;82.52;95901.72;4350059;32;20270;-60
2023/01/30 03:14:46;;;;;;;2.95;2.75;;;;;;;-0.86;82.95;95896.50;4352969;32;20199;-61
2023/01/30 03:17:14;;;;;;;2.90;2.80;;;;;;;-0.63;82.07;95895.19;4362040;32;20185;-61
2023/01/30 03:19:40;;;;;;;3.35;3.17;;;;;;;-0.87;82.43;95897.50;4358589;32;20208;-61
2023/01/30 03:22:06;;;;;;;2.87;2.70;;;;;;;-0.80;82.46;95895.63;4370881;32;20189;-60
2023/01/30 03:24:31;;;;;;;2.33;2.23;;;;;;;-0.90;83.05;95881.47;4364391;32;20230;-60
2023/01/30 03:27:09;;;;;;;2.77;2.57;;;;;;;-0.77;82.66;95874.38;4357123;32;20190;-60
2023/01/30 03:29:34;;;;;;;2.67;2.53;;;;;;;-0.94;82.84;95873.28;4367920;32;20193;-61
2023/01/30 03:32:00;;;;;;;7.53;4.33;;;;;;;-0.97;83.09;95857.28;4367350;32;20188;-61
2023/01/30 03:34:25;;;;;;;2.70;2.53;;;;;;;-1.01;83.20;95856.09;4370141;32;20216;-60
2023/01/30 03:36:50;;;;;;;1.67;1.63;;;;;;;-0.83;82.89;95859.59;4361722;32;20177;-60
2023/01/30 03:39:16;;;;;;;2.43;2.33;;;;;;;-0.86;83.05;95860.03;4356826;32;20260;-61
2023/01/30 03:41:41;;;;;;;2.90;2.80;;;;;;;-0.88;83.14;95861.25;4359307;32;20185;-61
2023/01/30 03:44:06;;;;;;;3.80;2.77;;;;;;;-0.98;83.72;95864.28;4355250;32;20200;-60
2023/01/30 03:46:32;;;;;;;1.93;1.83;;;;;;;-1.01;84.02;95845.66;4361870;32;20240;-60
2023/01/30 03:49:00;;;;;;;2.87;2.43;;;;;;;-0.97;83.85;95852.06;4371746;32;20180;-60
2023/01/30 03:51:25;;;;;;;8.00;4.50;;;;;;;-0.95;84.01;95848.25;4346405;32;20265;-60
2023/01/30 03:53:51;;;;;;;3.77;3.43;;;;;;;-1.05;83.85;95842.72;4348735;32;20186;-61
2023/01/30 03:56:16;;;;;;;3.70;3.50;;;;;;;-1.08;83.84;95837.91;4367674;32;20201;-60
2023/01/30 03:58:41;;;;;;;2.33;2.13;;;;;;;-1.11;84.31;95830.50;4359083;32;20197;-60
2023/01/30 04:01:07;;;;;;;2.63;2.43;;;;;;;-1.07;84.29;95831.69;4369299;32;20189;-60
2023/01/30 04:03:33;;;;;;;3.70;3.50;;;;;;;-0.95;83.74;95835.22;4370331;32;20204;-60
2023/01/30 04:05:59;;;;;;;2.47;2.28;;;;;;;-0.89;83.55;95836.22;4371920;32;20215;-60
2023/01/30 04:08:24;;;;;;;2.67;2.57;;;;;;;-0.93;83.79;95825.41;4368973;32;20192;-60
2023/01/30 04:10:49;;;;;;;2.87;2.77;;;;;;;-0.88;83.84;95825.59;4363596;32;20185;-61
2023/01/30 04:13:15;;;;;;;2.70;2.40;;;;;;;-0.84;83.33;95825.97;4365569;32;20189;-62
2023/01/30 04:15:40;;;;;;;11.57;4.17;;;;;;;-0.76;83.27;95821.31;4359752;32;20196;-62
2023/01/30 04:18:05;;;;;;;3.33;3.13;;;;;;;-0.82;83.16;95840.34;4348407;32;20177;-62
2023/01/30 04:20:30;;;;;;;7.30;2.93;;;;;;;-0.89;83.42;95863.06;4356499;32;20220;-60
2023/01/30 04:22:56;;;;;;;4.70;2.13;;;;;;;-0.87;83.14;95852.44;4364603;32;20223;-61
2023/01/30 04:25:21;;;;;;;3.13;2.10;;;;;;;-0.67;82.88;95847.09;4368869;32;20198;-60
2023/01/30 04:27:47;;;;;;;2.80;2.40;;;;;;;-0.77;82.66;95843.12;4366709;32;20248;-61
2023/01/30 04:30:12;;;;;;;1.97;1.93;;;;;;;-0.79;83.00;95845.16;4372703;32;20232;-61
2023/01/30 04:32:38;;;;;;;2.73;2.53;;;;;;;-0.86;83.46;95843.62;4351772;32;20227;-60
2023/01/30 04:35:03;;;;;;;4.37;4.00;;;;;;;-0.90;83.85;95851.03;4353586;32;20193;-60
2023/01/30 04:37:29;;;;;;;8.07;3.93;;;;;;;-1.06;84.35;95847.13;4368937;32;27802;-60
2023/01/30 04:39:54;;;;;;;2.70;2.50;;;;;;;-1.04;84.59;95841.72;4359229;32;20192;-60
2023/01/30 04:42:19;;;;;;;3.50;3.33;;;;;;;-0.90;84.47;95843.22;4364651;32;20211;-60
2023/01/30 04:44:45;;;;;;;2.77;2.50;;;;;;;-0.92;84.36;95840.03;4358086;32;20196;-61
2023/01/30 04:47:10;;;;;;;3.03;1.63;;;;;;;-0.89;84.13;95839.63;4350947;32;20197;-60
2023/01/30 04:49:35;;;;;;;1.97;1.93;;;;;;;-0.92;84.45;95823.59;4368057;32;20192;-61
2023/01/30 04:52:00;;;;;;;3.23;2.97;;;;;;;-0.80;84.03;95814.91;4353931;32;20193;-60
2023/01/30 04:54:26;;;;;;;2.77;2.67;;;;;;;-0.76;84.32;95803.06;4369500;32;20185;-61
2023/01/30 04:56:51;;;;;;;3.70;3.50;;;;;;;-0.63;84.01;95791.78;4367854;32;20199;-61
2023/01/30 04:59:16;;;;;;;2.83;2.63;;;;;;;-0.78;83.78;95799.06;4358393;32;20193;-61
2023/01/30 05:01:42;;;;;;;4.43;3.30;;;;;;;-0.70;83.82;95796.22;4366540;32;20266;-60
2023/01/30 05:04:07;;;;;;;3.23;2.40;;;;;;;-0.55;82.89;95803.72;4365380;32;20211;-60
2023/01/30 05:06:34;;;;;;;2.63;2.50;;;;;;;-0.42;82.55;95804.44;4367123;32;20196;-61
2023/01/30 05:09:00;;;;;;;2.42;2.37;;;;;;;-0.44;82.71;95803.88;4367772;32;20365;-61
2023/01/30 05:11:27;;;;;;;2.53;2.43;;;;;;;-0.60;82.80;95806.16;4357700;32;20189;-61
2023/01/30 05:13:53;;;;;;;2.75;2.65;;;;;;;-0.50;83.13;95802.09;4368116;32;20211;-60
2023/01/30 05:16:20;;;;;;;2.87;2.45;;;;;;;-0.59;82.82;95810.38;4359096;32;20224;-61
2023/01/30 05:18:46;;;;;;;3.47;3.20;;;;;;;-0.40;82.81;95799.00;4363341;32;20237;-61
2023/01/30 05:21:17;;;;;;;2.27;1.93;;;;;;;-0.41;82.37;95774.75;4361612;32;20185;-60
2023/01/30 05:23:42;;;;;;;2.90;2.80;;;;;;;-0.56;82.83;95760.47;4369395;32;20264;-62
2023/01/30 05:26:08;;;;;;;2.00;1.90;;;;;;;-0.57;82.93;95761.47;4367635;32;20207;-61
2023/01/30 05:28:33;;;;;;;2.30;2.13;;;;;;;-0.37;82.64;95754.28;4359102;32;20185;-61
2023/01/30 05:31:12;;;;;;;2.77;2.57;;;;;;;-0.46;81.95;95766.78;4362976;32;23298;-60
2023/01/30 05:33:39;;;;;;;3.05;2.95;;;;;;;-0.31;81.49;95766.47;4370677;32;20204;-61
2023/01/30 05:36:05;;;;;;;4.72;4.32;;;;;;;-0.30;81.65;95767.25;4370156;32;20269;-61
2023/01/30 05:38:30;;;;;;;3.37;3.22;;;;;;;0.00;80.64;95770.81;4361162;32;20188;-60
2023/01/30 05:41:06;;;;;;;2.53;2.33;;;;;;;-0.04;79.95;95778.25;4365549;32;20270;-61
2023/01/30 05:43:32;;;;;;;2.35;2.25;;;;;;;-0.04;80.67;95765.22;4373380;32;20199;-60
2023/01/30 05:46:00;;;;;;;2.92;2.30;;;;;;;-0.12;80.85;95762.87;4372003;32;20208;-61
2023/01/30 05:48:27;;;;;;;3.15;3.03;;;;;;;-0.25;81.11;95767.44;4368413;32;20191;-60
2023/01/30 05:50:54;;;;;;;2.33;2.22;;;;;;;-0.47;81.91;95765.19;4367984;32;20355;-61
2023/01/30 05:53:21;;;;;;;3.15;3.05;;;;;;;-0.35;81.86;95762.69;4364448;32;20185;-61
2023/01/30 05:55:58;;;;;;;3.33;2.25;;;;;;;-0.40;81.68;95755.50;4377119;32;20185;-60
2023/01/30 05:58:24;;;;;;;2.83;2.62;;;;;;;-0.51;81.77;95760.63;4363063;32;20226;-61
2023/01/30 06:00:50;;;;;;;3.47;3.37;;;;;;;-0.52;82.70;95761.63;4372128;32;20192;-60
2023/01/30 06:03:15;;;;;;;3.12;3.03;;;;;;;-0.41;81.79;95753.09;4361363;32;20348;-59
2023/01/30 06:05:40;;;;;;;2.20;2.07;;;;;;;-0.43;82.03;95753.34;4356426;32;20193;-61
2023/01/30 06:08:06;;;;;;;2.97;2.87;;;;;;;-0.28;81.84;95747.78;4365868;32;20197;-61
2023/01/30 06:10:33;;;;;;;1.73;1.70;;;;;;;-0.40;81.54;95755.50;4370610;32;20193;-60
2023/01/30 06:12:58;;;;;;;1.87;1.67;;;;;;;-0.23;81.44;95755.78;4360944;32;20184;-60
2023/01/30 06:15:23;;;;;;;2.27;2.17;;;;;;;-0.16;80.84;95740.06;4372594;32;20266;-60
2023/01/30 06:17:49;;;;;;;5.33;3.67;;;;;;;-0.24;80.09;95753.38;4370702;32;20215;-60
2023/01/30 06:20:14;;;;;;;2.93;2.77;;;;;;;-0.19;80.11;95751.69;4370238;32;20193;-59
2023/01/30 06:22:39;;;;;;;2.43;2.33;;;;;;;-0.22;80.49;95754.75;4366118;32;20200;-61
2023/01/30 06:25:05;;;;;;;3.23;2.93;;;;;;;-0.05;80.46;95747.97;4360075;32;20200;-60
2023/01/30 06:27:30;;;;;;;1.77;1.67;;;;;;;-0.19;81.37;95748.31;4370776;32;20234;-60
2023/01/30 06:29:56;;;;;;;0.93;0.83;;;;;;;-0.04;80.92;95749.56;4371854;32;20239;-60
2023/01/30 06:32:22;;;;;;;2.70;2.60;;;;;;;-0.24;81.52;95748.16;4358427;32;20265;-59
2023/01/30 06:34:47;;;;;;;0.73;0.73;;;;;;;-0.18;81.50;95755.91;4356915;32;20180;-59
2023/01/30 06:37:12;;;;;;;2.87;2.77;;;;;;;-0.20;81.77;95750.09;4363338;32;20333;-59
2023/01/30 06:39:38;;;;;;;3.07;2.93;;;;;;;-0.23;82.08;95763.59;4366343;32;20189;-61
2023/01/30 06:42:03;;;;;;;2.93;2.73;;;;;;;-0.23;82.48;95757.59;4368309;32;20211;-61
2023/01/30 06:44:28;;;;;;;1.93;1.83;;;;;;;-0.26;82.11;95753.59;4361162;32;20193;-60
2023/01/30 06:46:54;;;;;;;1.90;1.77;;;;;;;-0.31;82.15;95748.22;4364776;32;20231;-60
2023/01/30 06:49:19;;;;;;;1.43;1.33;;;;;;;-0.35;82.33;95747.84;4366684;32;20235;-60
2023/01/30 06:51:44;;;;;;;2.47;2.37;;;;;;;-0.21;82.24;95756.37;4363479;32;20252;-60
2023/01/30 06:54:09;;;;;;;2.67;2.30;;;;;;;-0.15;81.56;95759.91;4359794;32;20287;-61
2023/01/30 06:56:35;;;;;;;3.07;2.47;;;;;;;-0.08;81.25;95764.03;4369692;32;20208;-60
2023/01/30 06:59:00;;;;;;;2.03;1.90;;;;;;;-0.08;80.86;95771.87;4364528;32;20214;-60
2023/01/30 07:01:26;;;;;;;2.37;2.17;;;;;;;-0.02;80.11;95778.84;4363936;32;20249;-60
2023/01/30 07:03:51;;;;;;;2.33;2.17;;;;;;;0.13;79.92;95775.06;4355180;32;20198;-60
2023/01/30 07:06:16;;;;;;;2.83;2.73;;;;;;;0.10;79.33;95770.28;4366693;32;20194;-60
2023/01/30 07:08:43;;;;;;;2.77;2.67;;;;;;;0.10;79.46;95778.09;4368079;32;20256;-61
2023/01/30 07:11:09;;;;;;;3.53;2.28;;;;;;;0.06;79.32;95769.13;4349757;32;20205;-60
2023/01/30 07:13:34;;;;;;;2.08;1.98;;;;;;;-0.04;79.88;95780.84;4365360;32;20181;-61
2023/01/30 07:16:00;;;;;;;3.30;2.80;;;;;;;0.08;79.42;95770.50;4368744;32;20274;-60
2023/01/30 07:18:25;;;;;;;2.77;2.57;;;;;;;0.33;78.84;95771.25;4352684;32;20238;-60
2023/01/30 07:20:50;;;;;;;3.07;2.87;;;;;;;0.53;77.98;95771.00;4369115;32;20207;-61
2023/01/30 07:23:16;;;;;;;1.93;1.87;;;;;;;0.46;78.03;95783.31;4363862;32;20211;-61
2023/01/30 07:25:42;;;;;;;2.92;2.72;;;;;;;0.38;78.02;95791.47;4364125;32;20177;-61
2023/01/30 07:28:08;;;;;;;2.13;2.03;;;;;;;0.44;78.25;95787.97;4360656;32;20212;-53
2023/01/30 07:30:34;;;;;;;28.37;3.13;;;;;;;2.32;99.37;95769.06;4365797;32;20185;-52
2023/01/30 07:33:01;;;;;;;3.43;3.23;;;;;;;3.86;100.00;95766.34;4359746;32;20376;-52
2023/01/30 07:35:29;;;;;;;4.20;3.90;;;;;;;4.66;98.97;95763.22;4362640;32;20299;-52
2023/01/30 07:37:55;;;;;;;2.80;2.60;;;;;;;5.01;84.78;95745.19;4365393;32;20331;-51
2023/01/30 07:40:20;;;;;;;2.73;2.60;;;;;;;5.83;84.02;95749.34;4360033;32;20273;-48
2023/01/30 07:42:55;;;;;;;3.63;3.43;;;;;;;6.06;71.75;95756.91;4368854;32;20284;-53
2023/01/30 07:45:21;;;;;;;2.70;2.60;;;;;;;6.49;70.35;95758.47;4361553;32;20202;-53
2023/01/30 07:47:46;;;;;;;2.40;2.30;;;;;;;6.40;66.04;95753.97;4361800;32;20282;-54
2023/01/30 07:50:11;;;;;;;4.17;3.87;;;;;;;6.70;65.26;95754.09;4363532;32;20256;-50
2023/01/30 07:52:37;;;;;;;6.03;3.03;;;;;;;7.15;66.06;95747.37;4367934;32;20180;-51
2023/01/30 07:55:03;;;;;;;4.40;4.00;;;;;;;6.85;59.82;95746.25;4364677;32;20185;-62
2023/01/30 07:57:29;;;;;;;3.47;3.27;;;;;;;5.89;54.68;95755.47;4364030;32;20281;-61
2023/01/30 07:59:54;;;;;;;3.80;3.60;;;;;;;4.66;58.49;95745.63;4365518;32;20243;-60
2023/01/30 08:02:19;;;;;;;3.07;2.80;;;;;;;3.37;62.50;95739.84;4369746;32;20249;-62
2023/01/30 08:04:45;;;;;;;2.80;2.63;;;;;;;2.32;65.94;95727.19;4367529;32;20216;-60
2023/01/30 08:07:10;;;;;;;2.60;2.50;;;;;;;2.18;67.21;95738.94;4367121;32;20205;-61
2023/01/30 08:09:35;;;;;;;2.30;2.20;;;;;;;1.81;69.45;95723.50;4364618;32;20184;-60
2023/01/30 08:12:01;;;;;;;2.87;2.67;;;;;;;1.77;68.76;95730.22;4370601;32;20219;-61
2023/01/30 08:14:28;;;;;;;2.93;2.80;;;;;;;1.58;69.82;95729.53;4366911;32;20189;-60
2023/01/30 08:16:55;;;;;;;2.30;2.20;;;;;;;1.72;69.31;95732.72;4361946;32;20232;-62
2023/01/30 08:19:20;;;;;;;3.07;2.53;;;;;;;1.62;69.03;95733.28;4356188;32;20285;-60
2023/01/30 08:21:46;;;;;;;0.63;0.50;;;;;;;1.81;69.27;95728.75;4362609;32;20282;-54
2023/01/30 08:24:11;;;;;;;16.70;3.97;;;;;;;7.15;93.64;95697.25;4354517;32;20199;-54
2023/01/30 08:26:36;;;;;;;1.90;1.80;;;;;;;9.26;67.82;95706.78;4358454;32;20180;-52
2023/01/30 08:29:02;;;;;;;2.40;2.20;;;;;;;9.41;50.85;95709.31;4365767;32;20234;-54
2023/01/30 08:31:27;;;;;;;3.90;3.67;;;;;;;11.08;53.86;95695.41;4353952;32;20195;-64
2023/01/30 08:33:53;;;;;;;2.80;2.70;;;;;;;7.80;47.68;95707.03;4359003;32;20216;-66
2023/01/30 08:36:18;;;;;;;2.97;2.87;;;;;;;6.53;51.23;95708.69;4361445;32;20207;-66
2023/01/30 08:38:43;;;;;;;2.30;2.20;;;;;;;5.16;56.01;95713.03;4367782;32;20271;-64
2023/01/30 08:41:09;;;;;;;6.43;3.10;;;;;;;4.11;58.91;95717.63;4360661;32;20189;-64
2023/01/30 08:43:35;;;;;;;4.00;2.77;;;;;;;3.54;61.18;95708.38;4365828;32;20198;-64
2023/01/30 08:46:00;;;;;;;2.67;2.47;;;;;;;3.07;63.31;95700.84;4359772;32;20290;-64
2023/01/30 08:48:26;;;;;;;5.33;2.77;;;;;;;2.92;64.66;95703.16;4362461;32;20234;-63
2023/01/30 08:50:52;;;;;;;3.90;3.40;;;;;;;2.70;65.11;95708.31;4353843;32;20180;-63
2023/01/30 08:53:19;;;;;;;2.73;2.63;;;;;;;2.54;67.08;95701.19;4361129;32;20210;-65
2023/01/30 08:55:45;;;;;;;2.33;2.03;;;;;;;2.22;67.37;95688.53;4362316;32;20281;-64
2023/01/30 08:58:10;;;;;;;3.00;2.90;;;;;;;2.17;67.99;95692.88;4348520;32;20300;-64
2023/01/30 09:00:38;;;;;;;2.90;2.80;;;;;;;2.53;68.27;95676.03;4359084;32;20192;-63
2023/01/30 09:03:03;;;;;;;2.23;2.13;;;;;;;2.48;66.80;95683.81;4334495;32;20210;-63
2023/01/30 09:05:28;;;;;;;1.83;1.77;;;;;;;2.39;68.10;95688.59;4351125;32;20281;-65
2023/01/30 09:07:54;;;;;;;2.50;2.40;;;;;;;2.34;67.15;95684.06;4359831;32;20197;-62
2023/01/30 09:10:21;;;;;;;2.97;2.77;;;;;;;2.24;67.35;95677.84;4365768;32;20201;-63
2023/01/30 09:12:47;;;;;;;7.00;1.83;;;;;;;2.49;68.01;95675.72;4359752;32;20197;-64
2023/01/30 09:15:12;;;;;;;24.17;1.70;;;;;;;2.47;66.57;95698.72;4360836;32;20280;-62
2023/01/30 09:17:37;;;;;;;1.77;1.67;;;;;;;2.46;66.75;95680.63;4363039;32;20189;-64
2023/01/30 09:20:07;;;;;;;3.00;2.87;;;;;;;2.76;66.47;95676.72;4338511;32;20196;-62
2023/01/30 09:22:33;;;;;;;2.60;2.40;;;;;;;2.74;65.73;95657.81;4356126;32;20197;-65
2023/01/30 09:24:58;;;;;;;3.23;2.93;;;;;;;2.73;65.70;95671.16;4352067;32;20285;-63
2023/01/30 09:27:23;;;;;;;3.13;2.83;;;;;;;2.64;66.03;95668.12;4356222;32;20228;-63
2023/01/30 09:29:48;;;;;;;3.33;3.07;;;;;;;2.74;66.33;95676.16;4362392;32;20241;-63
2023/01/30 09:32:14;;;;;;;2.43;2.33;;;;;;;2.83;66.24;95670.53;4367500;32;20242;-61
2023/01/30 09:34:39;;;;;;;3.17;2.87;;;;;;;2.97;65.96;95680.47;4364299;32;20185;-63
2023/01/30 09:37:05;;;;;;;2.60;2.43;;;;;;;3.03;65.43;95687.41;4369663;32;20199;-65
2023/01/30 09:39:30;;;;;;;2.63;1.77;;;;;;;3.18;65.79;95692.09;4363263;32;20318;-63
2023/01/30 09:42:07;;;;;;;3.57;3.37;;;;;;;3.03;65.87;95699.72;4350294;32;20197;-64
2023/01/30 09:44:48;;;;;;;1.60;1.60;;;;;;;3.01;65.58;95688.66;4354801;32;20203;-65
2023/01/30 09:47:22;;;;;;;1.93;1.87;;;;;;;3.13;65.47;95676.28;4353592;32;20293;-63
2023/01/30 09:49:53;;;;;;;3.67;3.37;;;;;;;3.08;64.92;95668.34;4346037;32;20331;-64
2023/01/30 09:52:36;;;;;;;3.33;3.03;;;;;;;3.25;64.32;95663.91;4359622;32;20292;-62
2023/01/30 09:55:17;;;;;;;2.97;1.87;;;;;;;3.18;64.04;95660.66;4356275;32;20357;-61
2023/01/30 09:57:44;;;;;;;3.83;3.40;;;;;;;3.16;63.89;95636.50;4365356;32;20284;-66
2023/01/30 10:00:18;;;;;;;3.10;2.90;;;;;;;3.30;62.85;95639.63;4361466;32;20292;-65
2023/01/30 10:03:03;;;;;;;3.17;2.30;;;;;;;3.39;62.64;95643.41;4349975;32;20334;-61
2023/01/30 10:05:39;;;;;;;3.20;3.00;;;;;;;3.54;62.42;95637.56;4341573;32;20339;-62
2023/01/30 10:08:38;;;;;;;1.63;1.57;;;;;;;3.67;61.19;95645.91;4375438;32;20285;-64
2023/01/30 10:11:32;;;;;;;2.40;2.00;;;;;;;3.49;61.26;95648.81;4353330;32;20289;-65
2023/01/30 10:14:12;;;;;;;2.67;2.57;;;;;;;3.58;61.79;95641.31;4359466;32;20297;-64
2023/01/30 10:17:16;;;;;;;2.30;2.13;;;;;;;3.59;62.11;95648.16;4365052;32;20300;-64
2023/01/30 10:20:00;;;;;;;1.77;1.67;;;;;;;3.46;62.63;95659.78;4355026;32;20281;-61
2023/01/30 10:22:34;;;;;;;1.60;1.50;;;;;;;3.56;63.31;95638.12;4363527;32;20295;-63
2023/01/30 10:25:28;;;;;;;1.90;1.60;;;;;;;3.54;64.53;95621.84;4363550;32;20284;-66
2023/01/30 10:28:26;;;;;;;2.63;1.63;;;;;;;3.57;64.02;95609.03;4366689;32;20332;-63
2023/01/30 10:30:58;;;;;;;2.23;1.87;;;;;;;3.62;64.47;95611.75;4359457;32;20285;-65
2023/01/30 10:33:34;;;;;;;1.83;1.83;;;;;;;3.93;64.70;95602.44;4373812;32;20293;-64
2023/01/30 10:36:09;;;;;;;1.37;1.33;;;;;;;3.99;65.40;95604.06;4360735;32;20288;-62
2023/01/30 10:38:49;;;;;;;2.60;1.03;;;;;;;4.05;65.67;95581.31;4371821;32;20340;-63
2023/01/30 10:41:24;;;;;;;1.63;1.57;;;;;;;3.86;65.87;95567.72;4343481;32;20363;-63
2023/01/30 10:44:08;;;;;;;1.93;1.83;;;;;;;4.08;66.37;95572.94;4367093;32;20279;-62
2023/01/30 10:46:42;;;;;;;1.33;1.33;;;;;;;3.94;66.47;95588.28;4370782;32;20290;-62
2023/01/30 10:49:22;;;;;;;1.80;1.70;;;;;;;4.33;67.97;95582.94;4357705;32;20292;-63
2023/01/30 10:52:26;;;;;;;1.33;1.23;;;;;;;4.41;68.02;95585.09;4347873;32;20296;-63
2023/01/30 10:55:04;;;;;;;1.33;1.27;;;;;;;4.53;66.46;95579.72;4341522;32;20339;-63
2023/01/30 10:57:47;;;;;;;1.53;1.43;;;;;;;4.86;66.99;95568.97;4357875;32;20289;-63
2023/01/30 11:00:26;;;;;;;1.10;1.10;;;;;;;4.86;65.93;95578.69;4363562;32;20303;-63
2023/01/30 11:03:10;;;;;;;1.57;1.47;;;;;;;4.91;65.73;95587.41;4368012;32;20300;-65
2023/01/30 11:05:49;;;;;;;0.70;0.70;;;;;;;4.80;66.30;95591.75;4360727;32;20289;-61
2023/01/30 11:08:22;;;;;;;0.93;0.93;;;;;;;4.94;67.44;95576.41;4346316;32;20288;-63
2023/01/30 11:10:48;;;;;;;1.47;1.47;;;;;;;4.98;66.47;95572.22;4343549;32;20281;-63
2023/01/30 11:13:25;;;;;;;1.63;1.33;;;;;;;4.84;66.92;95584.19;4355182;32;20334;-63
2023/01/30 11:15:54;;;;;;;1.77;1.67;;;;;;;4.87;66.67;95572.37;4358772;32;20288;-63
2023/01/30 11:18:22;;;;;;;0.57;0.57;;;;;;;4.95;67.21;95562.22;4348316;32;20296;-63
2023/01/30 11:21:03;;;;;;;1.37;1.37;;;;;;;5.03;65.79;95539.91;4344098;32;20294;-63
2023/01/30 11:23:38;;;;;;;1.97;1.73;;;;;;;4.91;66.48;95532.22;4355133;32;20304;-63
2023/01/30 11:26:04;;;;;;;1.17;1.13;;;;;;;4.80;66.66;95536.59;4364746;32;20302;-63
2023/01/30 11:28:41;;;;;;;0.80;0.80;;;;;;;4.89;67.33;95529.03;4352217;32;20288;-64
2023/01/30 11:31:19;;;;;;;1.27;1.17;;;;;;;4.96;67.14;95507.81;4355998;32;20188;-63
2023/01/30 11:33:57;;;;;;;2.50;1.57;;;;;;;4.84;68.14;95503.50;4364611;32;20304;-63
2023/01/30 11:36:26;;;;;;;1.50;0.97;;;;;;;4.95;68.33;95499.13;4353259;32;20280;-63
2023/01/30 11:39:11;;;;;;;0.33;0.33;;;;;;;5.06;67.68;95500.75;4345906;32;20304;-63
2023/01/30 11:41:41;;;;;;;1.43;1.27;;;;;;;5.07;67.79;95496.28;4355083;32;20321;-63
2023/01/30 11:44:09;;;;;;;0.97;0.97;;;;;;;5.11;67.68;95500.78;4360384;32;20338;-62
2023/01/30 11:46:38;;;;;;;0.60;0.60;;;;;;;5.29;66.53;95515.34;4354455;32;20316;-63
2023/01/30 11:49:11;;;;;;;0.73;0.73;;;;;;;5.33;67.75;95491.97;4350301;32;20281;-63
2023/01/30 11:51:38;;;;;;;5.77;1.03;;;;;;;5.26;66.66;95494.81;4335591;32;20331;-63
2023/01/30 11:54:06;;;;;;;0.40;0.40;;;;;;;5.03;67.35;95485.50;4350349;32;20288;-63
2023/01/30 11:56:39;;;;;;;1.47;1.37;;;;;;;5.11;67.64;95481.59;4347138;32;20423;-63